createdAt,value
2023-02-18T00:01:13.490Z,3.55
2023-02-18T00:03:41.366Z,3.50
2023-02-18T00:06:19.846Z,4.03
2023-02-18T00:08:47.433Z,4.00
2023-02-18T00:11:15.625Z,3.85
2023-02-18T00:13:42.314Z,3.47
2023-02-18T00:16:11.919Z,3.70
2023-02-18T00:18:39.472Z,3.80
2023-02-18T00:21:08.170Z,3.78
2023-02-18T00:23:34.621Z,3.42
2023-02-18T00:26:03.382Z,3.25
2023-02-18T00:28:30.117Z,3.22
2023-02-18T00:30:56.898Z,3.75
2023-02-18T00:33:23.549Z,3.85
2023-02-18T00:35:50.021Z,3.22
2023-02-18T00:38:16.824Z,3.33
2023-02-18T00:40:43.481Z,3.03
2023-02-18T00:43:10.703Z,4.00
2023-02-18T00:45:36.997Z,3.17
2023-02-18T00:48:03.479Z,3.50
2023-02-18T00:50:29.848Z,3.35
2023-02-18T00:52:56.169Z,3.60
2023-02-18T00:55:22.505Z,2.92
2023-02-18T00:57:48.830Z,3.67
2023-02-18T01:00:15.547Z,3.22
2023-02-18T01:02:42.045Z,2.83
2023-02-18T01:05:08.562Z,2.85
2023-02-18T01:07:34.935Z,2.70
2023-02-18T01:10:01.237Z,2.78
2023-02-18T01:12:27.576Z,2.60
2023-02-18T01:14:54.068Z,2.50
2023-02-18T01:17:20.491Z,2.08
2023-02-18T01:19:46.874Z,1.90
2023-02-18T01:22:13.221Z,1.73
2023-02-18T01:24:39.553Z,1.80
2023-02-18T01:27:05.875Z,1.60
2023-02-18T01:29:32.169Z,1.40
2023-02-18T01:31:58.611Z,1.73
2023-02-18T01:34:24.979Z,1.33
2023-02-18T01:36:51.410Z,1.40
2023-02-18T01:39:17.767Z,1.50
2023-02-18T01:41:44.124Z,1.17
2023-02-18T01:44:22.730Z,1.10
2023-02-18T01:46:50.334Z,1.25
2023-02-18T01:49:21.026Z,1.20
2023-02-18T01:51:52.072Z,1.20
2023-02-18T01:54:23.441Z,1.35
2023-02-18T01:56:54.198Z,0.90
2023-02-18T01:59:25.658Z,1.10
2023-02-18T02:01:53.441Z,1.20
2023-02-18T02:04:20.777Z,1.10
2023-02-18T02:06:47.440Z,1.10
2023-02-18T02:09:17.489Z,0.95
2023-02-18T02:11:57.550Z,0.90
2023-02-18T02:14:46.562Z,1.20
2023-02-18T02:17:40.941Z,1.35
2023-02-18T02:20:16.378Z,1.30
2023-02-18T02:25:43.443Z,1.15
2023-02-18T02:28:43.902Z,1.10
2023-02-18T02:31:34.024Z,1.40
2023-02-18T02:34:15.352Z,1.15
2023-02-18T02:37:07.314Z,1.30
2023-02-18T02:39:45.435Z,1.30
2023-02-18T02:42:55.268Z,1.40
2023-02-18T02:45:30.473Z,1.25
2023-02-18T02:48:40.215Z,1.40
2023-02-18T02:51:15.211Z,1.30
2023-02-18T02:53:43.428Z,1.40
2023-02-18T02:56:24.764Z,1.40
2023-02-18T02:59:02.414Z,1.63
2023-02-18T03:01:35.564Z,1.42
2023-02-18T03:04:31.789Z,1.67
2023-02-18T03:10:10.335Z,1.67
2023-02-18T03:12:48.400Z,1.42
2023-02-18T03:15:30.043Z,1.70
2023-02-18T03:18:12.382Z,2.00
2023-02-18T03:20:51.673Z,1.60
2023-02-18T03:23:22.796Z,1.90
2023-02-18T03:25:50.790Z,1.90
2023-02-18T03:28:20.359Z,1.65
2023-02-18T03:30:58.645Z,1.85
2023-02-18T03:33:42.674Z,2.00
2023-02-18T03:36:10.159Z,1.80
2023-02-18T03:38:42.572Z,1.67
2023-02-18T03:41:09.032Z,1.67
2023-02-18T03:43:35.429Z,1.63
2023-02-18T03:46:03.005Z,1.58
2023-02-18T03:48:29.685Z,1.38
2023-02-18T03:50:56.114Z,1.48
2023-02-18T03:53:22.860Z,1.40
2023-02-18T03:55:49.277Z,1.60
2023-02-18T03:58:15.714Z,1.50
2023-02-18T04:00:42.043Z,1.30
2023-02-18T04:03:08.386Z,1.38
2023-02-18T04:05:34.699Z,1.30
2023-02-18T04:08:00.969Z,1.15
2023-02-18T04:10:27.343Z,1.30
2023-02-18T04:12:54.230Z,1.27
2023-02-18T04:15:20.592Z,1.20
2023-02-18T04:17:46.974Z,1.67
2023-02-18T04:20:13.467Z,1.60
2023-02-18T04:22:39.828Z,1.92
2023-02-18T04:25:06.705Z,1.88
2023-02-18T04:27:33.019Z,2.15
2023-02-18T04:29:59.627Z,2.28
2023-02-18T04:32:26.010Z,1.90
2023-02-18T04:34:52.537Z,2.30
2023-02-18T04:37:18.849Z,2.38
2023-02-18T04:39:45.184Z,2.30
2023-02-18T04:42:11.577Z,2.20
2023-02-18T04:44:38.109Z,2.60
2023-02-18T04:47:06.118Z,2.20
2023-02-18T04:49:33.070Z,2.15
2023-02-18T04:51:59.603Z,2.10
2023-02-18T04:54:26.002Z,1.88
2023-02-18T04:56:52.523Z,2.00
2023-02-18T04:59:18.909Z,2.20
2023-02-18T05:01:45.236Z,2.00
2023-02-18T05:04:11.619Z,2.10
2023-02-18T05:06:39.871Z,1.90
2023-02-18T05:09:06.485Z,2.03
2023-02-18T05:11:32.874Z,1.60
2023-02-18T05:13:59.207Z,1.70
2023-02-18T05:16:25.923Z,1.77
2023-02-18T05:18:52.476Z,1.42
2023-02-18T05:21:18.903Z,1.70
2023-02-18T05:23:45.263Z,1.50
2023-02-18T05:26:11.668Z,1.40
2023-02-18T05:28:38.011Z,1.75
2023-02-18T05:31:04.601Z,1.58
2023-02-18T05:33:30.995Z,1.55
2023-02-18T05:35:57.648Z,1.65
2023-02-18T05:38:24.063Z,2.13
2023-02-18T05:40:50.491Z,1.90
2023-02-18T05:43:16.855Z,2.20
2023-02-18T05:45:43.280Z,1.83
2023-02-18T05:48:09.728Z,2.20
2023-02-18T05:50:36.089Z,2.10
2023-02-18T05:53:02.479Z,2.25
2023-02-18T05:55:28.807Z,2.50
2023-02-18T05:57:55.205Z,2.38
2023-02-18T06:00:21.597Z,2.00
2023-02-18T06:02:48.223Z,2.50
2023-02-18T06:05:14.695Z,2.47
2023-02-18T06:07:41.047Z,2.60
2023-02-18T06:10:07.815Z,2.38
2023-02-18T06:12:34.160Z,2.72
2023-02-18T06:15:00.502Z,3.13
2023-02-18T06:17:26.885Z,2.60
2023-02-18T06:19:53.274Z,2.85
2023-02-18T06:22:19.682Z,2.70
2023-02-18T06:24:46.100Z,2.55
2023-02-18T06:27:12.497Z,2.42
2023-02-18T06:29:38.832Z,2.35
2023-02-18T06:32:05.473Z,2.72
2023-02-18T06:34:31.871Z,2.55
2023-02-18T06:36:59.414Z,2.65
2023-02-18T06:39:27.682Z,2.70
2023-02-18T06:41:54.059Z,2.70
2023-02-18T06:44:20.328Z,2.10
2023-02-18T06:46:46.811Z,2.72
2023-02-18T06:49:13.178Z,2.20
2023-02-18T06:51:39.534Z,2.50
2023-02-18T06:54:06.705Z,2.47
2023-02-18T06:56:33.126Z,2.42
2023-02-18T06:58:59.554Z,2.28
2023-02-18T07:01:25.856Z,2.38
2023-02-18T07:03:52.227Z,2.30
2023-02-18T07:06:18.672Z,2.85
2023-02-18T07:08:45.051Z,2.35
2023-02-18T07:11:11.595Z,2.53
2023-02-18T07:13:37.921Z,2.50
2023-02-18T07:16:04.556Z,2.47
2023-02-18T07:18:30.894Z,2.80
2023-02-18T07:20:57.352Z,2.88
2023-02-18T07:23:23.935Z,2.83
2023-02-18T07:25:50.353Z,2.55
2023-02-18T07:28:16.694Z,2.13
2023-02-18T07:30:43.104Z,2.60
2023-02-18T07:33:09.487Z,2.40
2023-02-18T07:35:35.854Z,2.50
2023-02-18T07:38:03.140Z,2.45
2023-02-18T07:40:29.685Z,2.25
2023-02-18T07:42:56.002Z,2.30
2023-02-18T07:45:22.314Z,2.50
2023-02-18T07:47:48.666Z,2.30
2023-02-18T07:50:15.012Z,2.60
2023-02-18T07:52:41.481Z,2.50
2023-02-18T07:55:08.477Z,2.13
2023-02-18T07:57:54.761Z,2.53
2023-02-18T08:00:21.398Z,2.72
2023-02-18T08:02:54.160Z,2.60
2023-02-18T08:05:20.609Z,3.00
2023-02-18T08:07:47.110Z,3.20
2023-02-18T08:10:13.484Z,3.10
2023-02-18T08:12:39.846Z,3.28
2023-02-18T08:15:07.284Z,3.42
2023-02-18T08:17:33.593Z,3.30
2023-02-18T08:19:59.950Z,3.17
2023-02-18T08:22:26.388Z,3.60
2023-02-18T08:24:56.111Z,3.88
2023-02-18T08:27:23.390Z,3.60
2023-02-18T08:29:50.132Z,3.85
2023-02-18T08:32:16.600Z,3.30
2023-02-18T08:34:42.944Z,3.40
2023-02-18T08:37:09.305Z,3.53
2023-02-18T08:39:39.308Z,3.28
2023-02-18T08:42:06.099Z,3.45
2023-02-18T08:44:32.404Z,3.40
2023-02-18T08:46:58.731Z,3.10
2023-02-18T08:49:25.053Z,3.00
2023-02-18T08:51:51.384Z,3.08
2023-02-18T08:54:18.637Z,3.42
2023-02-18T08:56:45.040Z,3.03
2023-02-18T08:59:11.539Z,2.80
2023-02-18T09:01:37.973Z,2.75
2023-02-18T09:04:04.508Z,2.20
2023-02-18T09:06:31.115Z,1.90
2023-02-18T09:08:57.397Z,1.70
2023-02-18T09:11:23.691Z,1.40
2023-02-18T09:13:49.977Z,1.15
2023-02-18T09:16:18.540Z,1.17
2023-02-18T09:18:46.048Z,0.90
2023-02-18T09:21:14.474Z,0.80
2023-02-18T09:23:40.793Z,0.63
2023-02-18T09:26:14.119Z,0.98
2023-02-18T09:28:40.626Z,1.10
2023-02-18T09:31:10.336Z,1.05
2023-02-18T09:33:39.107Z,1.10
2023-02-18T09:36:05.770Z,0.90
2023-02-18T09:38:33.123Z,0.90
2023-02-18T09:41:03.239Z,0.90
2023-02-18T09:43:38.753Z,0.90
2023-02-18T09:46:15.159Z,0.77
2023-02-18T09:48:44.424Z,1.20
2023-02-18T09:51:15.157Z,1.00
2023-02-18T09:53:45.084Z,1.10
2023-02-18T09:56:26.355Z,0.93
2023-02-18T09:58:53.968Z,0.85
2023-02-18T10:01:28.889Z,1.25
2023-02-18T10:04:00.126Z,1.10
2023-02-18T10:06:31.207Z,1.30
2023-02-18T10:09:01.864Z,1.30
2023-02-18T10:11:39.926Z,1.17
2023-02-18T10:14:12.110Z,0.95
2023-02-18T10:16:38.490Z,1.05
2023-02-18T10:19:14.190Z,0.95
2023-02-18T10:21:40.629Z,1.60
2023-02-18T10:24:20.320Z,0.70
2023-02-18T10:26:47.781Z,0.82
2023-02-18T10:29:21.636Z,0.90
2023-02-18T10:32:03.175Z,0.80
2023-02-18T10:34:43.102Z,1.00
2023-02-18T10:37:51.638Z,1.00
2023-02-18T10:40:23.674Z,0.70
2023-02-18T10:43:12.930Z,0.85
2023-02-18T10:45:58.585Z,0.95
2023-02-18T10:48:33.759Z,0.63
2023-02-18T10:51:04.976Z,0.90
2023-02-18T10:53:43.868Z,0.80
2023-02-18T10:56:35.514Z,0.90
2023-02-18T10:59:11.291Z,0.70
2023-02-18T11:01:38.764Z,0.90
2023-02-18T11:04:12.805Z,1.10
2023-02-18T11:06:42.572Z,0.90
2023-02-18T11:09:25.980Z,0.70
2023-02-18T11:12:08.275Z,0.80
2023-02-18T11:14:47.390Z,0.90
2023-02-18T11:17:21.841Z,1.00
2023-02-18T11:20:02.993Z,1.00
2023-02-18T11:22:33.125Z,1.30
2023-02-18T11:25:02.423Z,1.00
2023-02-18T11:27:38.355Z,1.20
2023-02-18T11:30:23.297Z,1.02
2023-02-18T11:32:54.140Z,1.20
2023-02-18T11:35:24.056Z,1.10
2023-02-18T11:37:51.921Z,0.90
2023-02-18T11:40:36.284Z,1.10
2023-02-18T11:43:05.880Z,1.10
2023-02-18T11:45:34.639Z,1.70
2023-02-18T11:48:06.888Z,1.00
2023-02-18T11:50:34.457Z,1.02
2023-02-18T11:53:20.729Z,1.10
2023-02-18T11:55:56.310Z,1.05
2023-02-18T11:58:22.773Z,1.10
2023-02-18T12:00:53.839Z,1.17
2023-02-18T12:03:46.723Z,0.98
2023-02-18T12:06:27.839Z,1.00
2023-02-18T12:09:00.824Z,0.77
2023-02-18T12:11:50.189Z,0.90
2023-02-18T12:14:19.143Z,1.05
2023-02-18T12:17:00.374Z,1.10
2023-02-18T12:19:55.362Z,1.33
2023-02-18T12:22:44.954Z,0.95
2023-02-18T12:25:40.604Z,0.90
2023-02-18T12:28:39.281Z,0.98
2023-02-18T12:31:25.936Z,0.95
2023-02-18T12:34:31.179Z,1.08
2023-02-18T12:37:20.542Z,1.10
2023-02-18T12:40:03.305Z,1.05
2023-02-18T12:42:43.700Z,1.23
2023-02-18T12:45:34.387Z,0.90
2023-02-18T12:48:32.437Z,0.95
2023-02-18T12:51:07.878Z,1.10
2023-02-18T12:53:53.866Z,1.23
2023-02-18T12:56:44.404Z,1.38
2023-02-18T12:59:41.155Z,1.25
2023-02-18T13:02:39.180Z,1.50
2023-02-18T13:05:29.903Z,1.48
2023-02-18T13:08:36.155Z,1.80
2023-02-18T13:11:17.630Z,1.55
2023-02-18T13:14:00.584Z,1.70
2023-02-18T13:16:29.123Z,1.67
2023-02-18T13:19:19.457Z,1.40
2023-02-18T13:21:49.131Z,1.45
2023-02-18T13:24:30.782Z,1.30
2023-02-18T13:27:37.697Z,1.40
2023-02-18T13:30:22.356Z,1.92
2023-02-18T13:32:59.371Z,1.42
2023-02-18T13:35:39.693Z,1.50
2023-02-18T13:38:36.982Z,1.20
2023-02-18T13:41:04.942Z,1.25
2023-02-18T13:43:35.968Z,1.05
2023-02-18T13:46:17.381Z,1.25
2023-02-18T13:48:53.144Z,1.30
2023-02-18T13:51:32.309Z,1.20
2023-02-18T13:54:17.267Z,1.60
2023-02-18T13:56:47.153Z,1.20
2023-02-18T13:59:26.260Z,1.42
2023-02-18T14:01:53.191Z,1.10
2023-02-18T14:04:38.477Z,1.10
2023-02-18T14:07:44.481Z,1.10
2023-02-18T14:10:13.585Z,1.27
2023-02-18T14:12:41.695Z,1.38
2023-02-18T14:15:20.171Z,1.27
2023-02-18T14:17:50.514Z,1.38
2023-02-18T14:20:19.529Z,1.10
2023-02-18T14:22:51.204Z,1.20
2023-02-18T14:25:17.606Z,1.33
2023-02-18T14:27:44.137Z,1.30
2023-02-18T14:30:24.708Z,2.05
2023-02-18T14:32:56.136Z,1.23
2023-02-18T14:35:37.623Z,2.45
2023-02-18T14:38:30.703Z,3.90
2023-02-18T14:41:28.281Z,2.42
2023-02-18T14:44:12.886Z,1.88
2023-02-18T14:47:06.316Z,1.10
2023-02-18T14:49:41.998Z,1.95
2023-02-18T14:52:17.863Z,2.40
2023-02-18T14:54:45.696Z,1.48
2023-02-18T14:57:20.199Z,1.58
2023-02-18T14:59:47.681Z,2.30
2023-02-18T15:02:27.217Z,1.13
2023-02-18T15:04:54.296Z,1.15
2023-02-18T15:07:21.894Z,1.02
2023-02-18T15:09:52.654Z,1.55
2023-02-18T15:12:23.940Z,1.30
2023-02-18T15:14:53.668Z,1.17
2023-02-18T15:17:27.198Z,1.30
2023-02-18T15:19:59.268Z,2.45
2023-02-18T15:22:30.186Z,2.58
2023-02-18T15:24:57.053Z,1.60
2023-02-18T15:27:26.259Z,1.80
2023-02-18T15:29:57.415Z,1.35
2023-02-18T15:32:29.358Z,2.40
2023-02-18T15:35:01.846Z,2.70
2023-02-18T15:37:29.632Z,2.00
2023-02-18T15:39:56.352Z,2.08
2023-02-18T15:42:34.054Z,1.90
2023-02-18T15:45:06.377Z,4.82
2023-02-18T15:47:33.356Z,4.22
2023-02-18T15:50:01.870Z,2.45
2023-02-18T15:52:31.793Z,1.42
2023-02-18T15:55:07.787Z,1.70
2023-02-18T15:57:36.546Z,1.80
2023-02-18T16:00:26.758Z,1.40
2023-02-18T16:03:05.125Z,1.20
2023-02-18T16:05:32.124Z,1.33
2023-02-18T16:08:05.106Z,1.38
2023-02-18T16:10:36.169Z,1.40
2023-02-18T16:13:04.689Z,1.50
2023-02-18T16:15:37.937Z,1.38
2023-02-18T16:18:06.899Z,1.30
2023-02-18T16:20:38.465Z,1.25
2023-02-18T16:23:13.084Z,3.35
2023-02-18T16:25:45.695Z,5.63
2023-02-18T16:28:23.665Z,6.55
2023-02-18T16:30:49.981Z,2.25
2023-02-18T16:33:16.390Z,1.88
2023-02-18T16:35:49.901Z,1.27
2023-02-18T16:38:20.224Z,3.47
2023-02-18T16:40:47.170Z,1.88
2023-02-18T16:43:17.418Z,2.70
2023-02-18T16:45:48.428Z,1.90
2023-02-18T16:48:23.835Z,1.30
2023-02-18T16:50:51.603Z,1.48
2023-02-18T16:53:18.336Z,1.88
2023-02-18T16:55:44.631Z,1.55
2023-02-18T16:58:10.994Z,5.30
2023-02-18T17:00:38.439Z,10.40
2023-02-18T17:03:05.660Z,7.10
2023-02-18T17:05:39.402Z,5.68
2023-02-18T17:08:22.937Z,6.72
2023-02-18T17:10:56.387Z,5.18
2023-02-18T17:13:25.919Z,1.60
2023-02-18T17:15:54.595Z,1.45
2023-02-18T17:18:21.221Z,1.15
2023-02-18T17:20:48.927Z,1.55
2023-02-18T17:23:17.716Z,1.50
2023-02-18T17:25:45.351Z,2.45
2023-02-18T17:28:11.693Z,1.80
2023-02-18T17:30:41.534Z,2.10
2023-02-18T17:33:11.818Z,2.08
2023-02-18T17:35:38.178Z,1.63
2023-02-18T17:38:12.541Z,1.83
2023-02-18T17:40:39.367Z,1.38
2023-02-18T17:43:05.812Z,2.03
2023-02-18T17:45:35.369Z,1.83
2023-02-18T17:48:03.169Z,2.20
2023-02-18T17:50:30.946Z,1.90
2023-02-18T17:52:57.983Z,1.48
2023-02-18T17:55:27.442Z,1.50
2023-02-18T17:57:54.868Z,1.42
2023-02-18T18:00:23.277Z,1.75
2023-02-18T18:02:49.915Z,1.60
2023-02-18T18:05:31.548Z,1.70
2023-02-18T18:07:59.237Z,1.70
2023-02-18T18:10:30.886Z,1.65
2023-02-18T18:13:02.370Z,1.63
2023-02-18T18:15:41.687Z,1.90
2023-02-18T18:18:10.454Z,1.42
2023-02-18T18:20:38.056Z,2.58
2023-02-18T18:23:06.797Z,1.70
2023-02-18T18:25:38.569Z,1.75
2023-02-18T18:28:05.835Z,1.67
2023-02-18T18:30:35.428Z,1.75
2023-02-18T18:33:03.483Z,1.70
2023-02-18T18:35:33.098Z,1.77
2023-02-18T18:38:00.271Z,1.85
2023-02-18T18:40:29.906Z,2.08
2023-02-18T18:42:57.885Z,1.83
2023-02-18T18:45:27.691Z,1.92
2023-02-18T18:47:54.698Z,1.95
2023-02-18T18:50:22.466Z,2.15
2023-02-18T18:52:51.613Z,1.95
2023-02-18T18:55:34.947Z,2.10
2023-02-18T18:58:01.761Z,2.35
2023-02-18T19:00:35.373Z,2.17
2023-02-18T19:03:03.228Z,2.30
2023-02-18T19:05:37.133Z,2.20
2023-02-18T19:08:04.569Z,2.60
2023-02-18T19:10:35.393Z,2.30
2023-02-18T19:13:12.977Z,2.70
2023-02-18T19:15:40.029Z,2.28
2023-02-18T19:18:06.957Z,2.67
2023-02-18T19:20:38.361Z,2.88
2023-02-18T19:23:05.075Z,3.13
2023-02-18T19:25:31.742Z,3.15
2023-02-18T19:27:58.248Z,2.80
2023-02-18T19:30:28.109Z,2.72
2023-02-18T19:32:57.065Z,2.90
2023-02-18T19:35:24.971Z,2.85
2023-02-18T19:37:51.495Z,3.08
2023-02-18T19:40:20.318Z,2.92
2023-02-18T19:42:47.604Z,2.83
2023-02-18T19:45:14.580Z,2.67
2023-02-18T19:47:41.075Z,2.97
2023-02-18T19:50:12.367Z,2.80
2023-02-18T19:52:39.071Z,2.92
2023-02-18T19:55:06.493Z,3.20
2023-02-18T19:57:34.617Z,3.15
2023-02-18T20:00:02.009Z,2.65
2023-02-18T20:02:28.670Z,2.92
2023-02-18T20:04:55.122Z,3.13
2023-02-18T20:07:22.489Z,2.92
2023-02-18T20:09:53.221Z,3.08
2023-02-18T20:12:20.169Z,3.10
2023-02-18T20:14:47.000Z,5.78
2023-02-18T20:17:13.292Z,6.50
2023-02-18T20:19:39.647Z,9.88
2023-02-18T20:22:07.397Z,7.03
2023-02-18T20:24:34.527Z,4.10
2023-02-18T20:27:02.720Z,3.72
2023-02-18T20:29:29.830Z,3.95
2023-02-18T20:31:56.272Z,4.32
2023-02-18T20:34:22.791Z,4.18
2023-02-18T20:36:50.297Z,4.53
2023-02-18T20:39:17.939Z,4.30
2023-02-18T20:41:45.963Z,4.68
2023-02-18T20:44:12.925Z,5.90
2023-02-18T20:46:39.941Z,4.10
2023-02-18T20:49:08.891Z,4.38
2023-02-18T20:51:35.662Z,4.03
2023-02-18T20:54:09.096Z,3.67
2023-02-18T20:56:37.331Z,3.60
2023-02-18T20:59:04.022Z,3.83
2023-02-18T21:01:30.389Z,4.05
2023-02-18T21:03:56.795Z,4.28
2023-02-18T21:06:24.560Z,4.10
2023-02-18T21:08:53.577Z,3.75
2023-02-18T21:11:23.075Z,3.97
2023-02-18T21:13:51.133Z,4.32
2023-02-18T21:16:19.338Z,4.47
2023-02-18T21:18:45.991Z,4.53
2023-02-18T21:21:16.373Z,4.10
2023-02-18T21:23:42.799Z,4.28
2023-02-18T21:26:11.942Z,4.45
2023-02-18T21:28:39.335Z,4.00
2023-02-18T21:31:17.903Z,4.00
2023-02-18T21:33:44.532Z,4.00
2023-02-18T21:36:13.770Z,3.97
2023-02-18T21:38:41.256Z,3.92
2023-02-18T21:41:07.873Z,4.28
2023-02-18T21:43:34.291Z,3.90
2023-02-18T21:46:15.410Z,4.13
2023-02-18T21:49:00.622Z,4.07
2023-02-18T21:51:45.424Z,4.07
2023-02-18T21:54:11.786Z,3.97
2023-02-18T21:56:38.128Z,3.97
2023-02-18T21:59:04.464Z,4.75
2023-02-18T22:01:30.835Z,4.10
2023-02-18T22:03:57.261Z,4.22
2023-02-18T22:06:23.687Z,4.10
2023-02-18T22:08:50.032Z,4.35
2023-02-18T22:11:16.433Z,4.22
2023-02-18T22:13:43.820Z,4.93
2023-02-18T22:16:10.333Z,4.32
2023-02-18T22:18:36.826Z,4.40
2023-02-18T22:21:08.632Z,4.10
2023-02-18T22:23:35.590Z,4.15
2023-02-18T22:26:04.263Z,4.25
2023-02-18T22:28:30.604Z,4.38
2023-02-18T22:30:57.149Z,4.18
2023-02-18T22:33:23.472Z,4.15
2023-02-18T22:35:49.819Z,4.18
2023-02-18T22:38:18.756Z,3.95
2023-02-18T22:40:45.117Z,4.20
2023-02-18T22:43:11.429Z,4.55
2023-02-18T22:45:37.792Z,4.30
2023-02-18T22:48:04.438Z,4.43
2023-02-18T22:50:30.780Z,3.83
2023-02-18T22:52:57.255Z,3.83
2023-02-18T22:55:23.566Z,3.78
2023-02-18T22:57:49.903Z,3.55
2023-02-18T23:00:16.489Z,4.30
2023-02-18T23:02:42.827Z,3.85
2023-02-18T23:05:09.341Z,4.22
2023-02-18T23:07:38.328Z,4.13
2023-02-18T23:10:05.021Z,3.97
2023-02-18T23:12:31.362Z,4.22
2023-02-18T23:14:57.682Z,5.50
2023-02-18T23:17:24.009Z,6.45
2023-02-18T23:19:52.572Z,4.30
2023-02-18T23:22:28.151Z,3.97
2023-02-18T23:24:54.500Z,4.10
2023-02-18T23:27:21.422Z,4.30
2023-02-18T23:29:48.373Z,4.95
2023-02-18T23:32:14.853Z,4.13
2023-02-18T23:34:41.161Z,4.00
2023-02-18T23:37:07.897Z,3.90
2023-02-18T23:39:34.473Z,4.47
2023-02-18T23:42:01.027Z,3.80
2023-02-18T23:44:28.129Z,3.75
2023-02-18T23:46:54.913Z,4.97
2023-02-18T23:49:23.953Z,4.35
2023-02-18T23:51:52.310Z,4.15
2023-02-18T23:54:19.100Z,4.05
2023-02-18T23:56:45.582Z,4.80
2023-02-18T23:59:12.500Z,4.70
